createdAt,value
2022-10-15T00:00:36.177Z,100899.67
2022-10-15T00:01:41.751Z,100892.62
2022-10-15T00:02:45.678Z,100892.62
2022-10-15T00:03:49.686Z,100895.41
2022-10-15T00:04:53.652Z,100886.66
2022-10-15T00:05:57.515Z,100892.83
2022-10-15T00:07:02.734Z,100889.31
2022-10-15T00:08:08.353Z,100889.44
2022-10-15T00:11:22.325Z,100884.28
2022-10-15T00:14:07.647Z,100884.59
2022-10-15T00:15:12.072Z,100887.34
2022-10-15T00:16:20.701Z,100876.81
2022-10-15T00:17:24.940Z,100882.14
2022-10-15T00:18:29.362Z,100882.14
2022-10-15T00:19:33.379Z,100882.30
2022-10-15T00:20:40.212Z,100886.78
2022-10-15T00:21:44.064Z,100886.78
2022-10-15T00:22:47.948Z,100886.78
2022-10-15T00:23:52.367Z,100881.66
2022-10-15T00:24:56.233Z,100881.66
2022-10-15T00:26:08.143Z,100890.69
2022-10-15T00:27:12.090Z,100888.23
2022-10-15T00:28:17.706Z,100882.06
2022-10-15T00:29:21.694Z,100890.97
2022-10-15T00:30:25.632Z,100890.13
2022-10-15T00:31:32.629Z,100879.59
2022-10-15T00:32:38.147Z,100879.48
2022-10-15T00:33:43.145Z,100879.48
2022-10-15T00:34:47.548Z,100876.94
2022-10-15T00:36:01.609Z,100882.26
2022-10-15T00:37:05.513Z,100882.26
2022-10-15T00:38:09.475Z,100882.26
2022-10-15T00:39:13.330Z,100876.09
2022-10-15T00:40:17.406Z,100873.51
2022-10-15T00:41:27.116Z,100873.51
2022-10-15T00:42:32.013Z,100880.73
2022-10-15T00:43:44.901Z,100874.64
2022-10-15T00:44:54.490Z,100870.28
2022-10-15T00:46:02.676Z,100868.59
2022-10-15T00:47:25.269Z,100873.06
2022-10-15T00:48:34.055Z,100874.11
2022-10-15T00:49:46.480Z,100872.49
2022-10-15T00:50:51.804Z,100876.00
2022-10-15T00:52:04.735Z,100876.00
2022-10-15T00:53:10.454Z,100874.27
2022-10-15T00:54:16.155Z,100875.23
2022-10-15T00:55:35.206Z,100877.89
2022-10-15T00:56:42.077Z,100881.52
2022-10-15T00:57:49.071Z,100880.64
2022-10-15T00:58:55.834Z,100878.86
2022-10-15T01:00:02.921Z,100878.94
2022-10-15T01:01:06.888Z,100872.77
2022-10-15T01:02:13.353Z,100878.17
2022-10-15T01:03:17.277Z,100878.17
2022-10-15T01:04:22.562Z,100880.95
2022-10-15T01:05:27.260Z,100882.08
2022-10-15T01:06:35.341Z,100888.24
2022-10-15T01:07:39.238Z,100888.24
2022-10-15T01:08:43.348Z,100883.12
2022-10-15T01:09:47.439Z,100885.70
2022-10-15T01:11:29.346Z,100882.27
2022-10-15T01:12:47.865Z,100878.84
2022-10-15T01:13:56.371Z,100879.81
2022-10-15T01:15:18.250Z,100879.81
2022-10-15T01:16:46.144Z,100884.55
2022-10-15T01:17:53.000Z,100881.13
2022-10-15T01:19:02.844Z,100885.59
2022-10-15T01:20:29.844Z,100878.66
2022-10-15T01:21:36.560Z,100874.50
2022-10-15T01:22:52.167Z,100874.50
2022-10-15T01:24:08.182Z,100872.97
2022-10-15T01:25:40.570Z,100885.60
2022-10-15T01:26:56.215Z,100885.60
2022-10-15T01:28:18.256Z,100879.62
2022-10-15T01:29:58.326Z,100884.17
2022-10-15T01:31:05.266Z,100884.17
2022-10-15T01:32:18.126Z,100879.05
2022-10-15T01:33:50.461Z,100880.09
2022-10-15T01:34:59.969Z,100876.66
2022-10-15T01:36:09.647Z,100885.67
2022-10-15T01:37:16.540Z,100876.00
2022-10-15T01:38:23.420Z,100871.62
2022-10-15T01:39:31.925Z,100882.36
2022-10-15T01:40:38.901Z,100875.23
2022-10-15T01:41:48.564Z,100877.89
2022-10-15T01:42:55.415Z,100879.78
2022-10-15T01:44:05.017Z,100876.27
2022-10-15T01:45:11.973Z,100874.47
2022-10-15T01:46:19.062Z,100880.63
2022-10-15T01:47:33.806Z,100880.63
2022-10-15T01:48:37.587Z,100860.39
2022-10-15T01:49:44.238Z,100886.25
2022-10-15T01:50:51.165Z,100890.60
2022-10-15T01:51:59.767Z,100881.86
2022-10-15T01:53:06.986Z,100892.67
2022-10-15T01:54:15.486Z,100881.20
2022-10-15T01:55:20.999Z,100887.44
2022-10-15T01:56:27.072Z,100880.35
2022-10-15T01:57:33.319Z,100892.75
2022-10-15T01:58:40.194Z,100889.17
2022-10-15T01:59:45.892Z,100883.01
2022-10-15T02:00:51.783Z,100890.98
2022-10-15T02:01:58.135Z,100889.06
2022-10-15T02:03:04.161Z,100889.94
2022-10-15T02:04:21.535Z,100889.94
2022-10-15T02:05:28.402Z,100890.79
2022-10-15T02:06:35.331Z,100892.48
2022-10-15T02:08:00.412Z,100750.86
2022-10-15T02:09:10.128Z,100897.99
2022-10-15T02:10:35.171Z,100891.64
2022-10-15T02:11:58.336Z,100897.80
2022-10-15T02:13:38.010Z,100895.91
2022-10-15T02:14:55.301Z,100901.05
2022-10-15T02:16:02.158Z,100905.52
2022-10-15T02:17:10.230Z,100900.09
2022-10-15T02:18:18.403Z,100910.56
2022-10-15T02:19:35.888Z,100909.52
2022-10-15T02:21:00.297Z,100904.86
2022-10-15T02:22:12.955Z,100903.71
2022-10-15T02:23:27.101Z,100900.12
2022-10-15T02:24:28.466Z,100906.95
2022-10-15T02:25:35.861Z,100905.06
2022-10-15T02:26:43.097Z,100907.53
2022-10-15T02:27:49.616Z,100903.83
2022-10-15T02:28:56.689Z,100908.95
2022-10-15T02:30:06.577Z,100904.33
2022-10-15T02:31:15.460Z,100907.72
2022-10-15T02:32:22.169Z,100911.07
2022-10-15T02:33:29.894Z,100912.77
2022-10-15T02:34:36.150Z,100915.23
2022-10-15T02:35:43.951Z,100908.88
2022-10-15T02:36:56.694Z,100909.72
2022-10-15T02:38:03.657Z,100908.67
2022-10-15T02:39:11.137Z,100910.41
2022-10-15T02:40:15.805Z,100904.97
2022-10-15T02:41:19.913Z,100917.23
2022-10-15T02:42:24.176Z,100908.20
2022-10-15T02:43:28.379Z,100914.30
2022-10-15T02:44:32.415Z,100913.33
2022-10-15T02:45:38.427Z,100917.72
2022-10-15T02:46:42.801Z,100916.84
2022-10-15T02:47:46.743Z,100920.46
2022-10-15T02:48:50.691Z,100915.91
2022-10-15T02:49:54.559Z,100918.57
2022-10-15T02:50:58.496Z,100911.52
2022-10-15T02:52:02.423Z,100911.52
2022-10-15T02:53:06.415Z,100928.44
2022-10-15T02:54:10.387Z,100928.44
2022-10-15T02:55:14.321Z,100915.98
2022-10-15T02:56:18.369Z,100923.12
2022-10-15T02:57:22.620Z,100923.89
2022-10-15T02:58:26.770Z,100923.89
2022-10-15T02:59:30.693Z,100924.73
2022-10-15T03:00:34.740Z,100919.34
2022-10-15T03:01:39.050Z,100922.00
2022-10-15T03:02:42.981Z,100924.73
2022-10-15T03:03:46.931Z,100919.41
2022-10-15T03:04:50.809Z,100919.41
2022-10-15T03:05:54.712Z,100916.10
2022-10-15T03:06:58.656Z,100916.10
2022-10-15T03:08:02.674Z,100918.96
2022-10-15T03:09:06.653Z,100889.03
2022-10-15T03:10:12.176Z,100913.80
2022-10-15T03:11:16.039Z,100923.59
2022-10-15T03:12:19.899Z,100921.05
2022-10-15T03:13:25.165Z,100917.42
2022-10-15T03:15:34.658Z,100914.84
2022-10-15T03:16:40.208Z,100914.00
2022-10-15T03:17:44.145Z,100914.95
2022-10-15T03:18:48.146Z,100920.28
2022-10-15T03:19:52.106Z,100921.20
2022-10-15T03:20:57.274Z,100916.97
2022-10-15T03:22:01.142Z,100915.34
2022-10-15T03:23:05.017Z,100915.34
2022-10-15T03:24:10.501Z,100912.84
2022-10-15T03:25:17.069Z,100913.81
2022-10-15T03:26:21.026Z,100913.81
2022-10-15T03:27:25.350Z,100912.30
2022-10-15T03:28:29.655Z,100916.66
2022-10-15T03:29:33.675Z,100918.74
2022-10-15T03:30:37.743Z,100913.70
2022-10-15T03:31:41.590Z,100920.83
2022-10-15T03:32:52.340Z,100921.02
2022-10-15T03:33:52.743Z,100916.92
2022-10-15T03:34:59.323Z,100915.12
2022-10-15T03:36:05.033Z,100915.31
2022-10-15T03:37:08.978Z,100915.31
2022-10-15T03:38:12.889Z,100917.97
2022-10-15T03:39:16.729Z,100909.22
2022-10-15T03:40:20.697Z,100909.22
2022-10-15T03:41:24.663Z,100912.84
2022-10-15T03:42:28.511Z,100915.50
2022-10-15T03:43:36.363Z,100916.42
2022-10-15T03:44:39.537Z,100911.11
2022-10-15T03:45:43.373Z,100911.11
2022-10-15T03:46:47.334Z,100905.98
2022-10-15T03:47:51.434Z,100908.64
2022-10-15T03:48:55.299Z,100911.59
2022-10-15T03:50:00.761Z,100913.38
2022-10-15T03:51:04.850Z,100881.73
2022-10-15T03:52:08.762Z,100916.98
2022-10-15T03:53:13.062Z,100916.14
2022-10-15T03:54:17.042Z,100914.52
2022-10-15T03:55:20.887Z,100918.22
2022-10-15T03:56:24.861Z,100920.95
2022-10-15T03:57:28.879Z,100918.29
2022-10-15T03:58:33.184Z,100909.47
2022-10-15T03:59:38.705Z,100912.91
2022-10-15T04:00:44.275Z,100771.31
2022-10-15T04:01:48.257Z,100921.83
2022-10-15T04:02:52.110Z,100915.63
2022-10-15T04:03:56.045Z,100918.29
2022-10-15T04:04:59.896Z,100922.68
2022-10-15T04:06:03.913Z,100920.95
2022-10-15T04:07:08.805Z,100918.29
2022-10-15T04:08:27.435Z,100920.02
2022-10-15T04:09:27.964Z,100918.22
2022-10-15T04:10:30.347Z,100924.38
2022-10-15T04:11:34.381Z,100921.72
2022-10-15T04:12:38.411Z,100922.57
2022-10-15T04:13:42.252Z,100925.34
2022-10-15T04:14:47.676Z,100921.72
2022-10-15T04:15:51.528Z,100928.00
2022-10-15T04:16:58.707Z,100928.00
2022-10-15T04:18:04.516Z,100922.68
2022-10-15T04:19:11.018Z,100926.27
2022-10-15T04:20:14.152Z,100920.02
2022-10-15T04:21:17.988Z,100926.19
2022-10-15T04:22:22.222Z,100925.41
2022-10-15T04:23:28.691Z,100922.87
2022-10-15T04:24:34.157Z,100920.10
2022-10-15T04:25:41.194Z,100923.61
2022-10-15T04:26:45.597Z,100928.00
2022-10-15T04:27:50.990Z,100920.02
2022-10-15T04:28:54.924Z,100926.19
2022-10-15T04:29:58.812Z,100921.83
2022-10-15T04:31:04.261Z,100919.06
2022-10-15T04:32:08.137Z,100920.80
2022-10-15T04:33:11.984Z,100917.95
2022-10-15T04:34:17.122Z,100916.22
2022-10-15T04:35:21.323Z,100913.56
2022-10-15T04:36:28.127Z,100921.45
2022-10-15T04:37:34.292Z,100915.30
2022-10-15T04:38:39.910Z,100912.63
2022-10-15T04:39:43.886Z,100912.52
2022-10-15T04:40:49.432Z,100915.10
2022-10-15T04:41:53.449Z,100913.88
2022-10-15T04:42:57.320Z,100917.12
2022-10-15T04:44:01.318Z,100915.89
2022-10-15T04:45:07.146Z,100908.37
2022-10-15T04:46:12.831Z,100907.06
2022-10-15T04:47:18.061Z,100912.19
2022-10-15T04:48:22.020Z,100910.19
2022-10-15T04:49:25.878Z,100910.03
2022-10-15T04:50:29.840Z,100915.23
2022-10-15T04:51:33.758Z,100910.68
2022-10-15T04:52:37.691Z,100917.70
2022-10-15T04:53:44.065Z,100922.94
2022-10-15T04:54:48.013Z,100919.23
2022-10-15T04:55:51.888Z,100919.23
2022-10-15T04:56:55.820Z,100924.64
2022-10-15T04:57:59.753Z,100864.61
2022-10-15T04:59:06.700Z,100864.61
2022-10-15T05:00:12.650Z,100921.78
2022-10-15T05:01:19.316Z,100915.73
2022-10-15T05:02:24.858Z,100915.73
2022-10-15T05:03:29.520Z,100927.30
2022-10-15T05:04:33.879Z,100919.31
2022-10-15T05:05:37.777Z,100917.62
2022-10-15T05:06:43.275Z,100918.39
2022-10-15T05:07:49.133Z,100915.61
2022-10-15T05:08:55.955Z,100928.06
2022-10-15T05:09:59.833Z,100923.59
2022-10-15T05:11:08.737Z,100930.64
2022-10-15T05:12:12.687Z,100923.40
2022-10-15T05:13:18.192Z,100925.98
2022-10-15T05:14:23.944Z,100925.98
2022-10-15T05:15:27.874Z,100930.91
2022-10-15T05:16:36.505Z,100932.52
2022-10-15T05:17:40.418Z,100934.14
2022-10-15T05:18:46.035Z,100935.67
2022-10-15T05:19:49.920Z,100935.48
2022-10-15T05:20:55.400Z,100938.02
2022-10-15T05:21:59.289Z,100940.41
2022-10-15T05:23:03.207Z,100937.66
2022-10-15T05:24:09.254Z,100937.66
2022-10-15T05:25:13.117Z,100941.74
2022-10-15T05:26:21.643Z,100941.74
2022-10-15T05:27:25.517Z,100937.72
2022-10-15T05:28:29.652Z,100942.77
2022-10-15T05:29:33.543Z,100944.29
2022-10-15T05:30:37.484Z,100940.55
2022-10-15T05:31:41.439Z,100942.92
2022-10-15T05:32:46.914Z,100948.93
2022-10-15T05:33:52.369Z,100948.61
2022-10-15T05:35:11.479Z,100942.15
2022-10-15T05:36:16.930Z,100947.92
2022-10-15T05:37:21.044Z,100950.09
2022-10-15T05:38:30.585Z,100950.09
2022-10-15T05:39:39.356Z,100951.84
2022-10-15T05:40:39.871Z,100957.66
2022-10-15T05:41:43.735Z,100950.09
2022-10-15T05:42:50.722Z,100952.34
2022-10-15T05:43:56.399Z,100951.95
2022-10-15T05:45:00.309Z,100956.02
2022-10-15T05:46:08.249Z,100807.84
2022-10-15T05:47:13.735Z,100952.45
2022-10-15T05:48:19.192Z,100945.85
2022-10-15T05:49:23.055Z,100953.55
2022-10-15T05:50:28.552Z,100953.13
2022-10-15T05:51:32.400Z,100956.34
2022-10-15T05:52:37.578Z,100948.00
2022-10-15T05:53:43.217Z,100948.66
2022-10-15T05:54:47.066Z,100948.45
2022-10-15T05:55:53.947Z,100948.14
2022-10-15T05:57:04.463Z,100948.14
2022-10-15T05:58:05.590Z,100957.31
2022-10-15T05:59:11.773Z,100954.97
2022-10-15T06:00:17.400Z,100955.69
2022-10-15T06:01:21.344Z,100964.44
2022-10-15T06:02:25.488Z,100957.36
2022-10-15T06:03:30.649Z,100959.03
2022-10-15T06:04:36.086Z,100963.59
2022-10-15T06:05:41.934Z,100968.67
2022-10-15T06:06:45.957Z,100966.06
2022-10-15T06:07:49.871Z,100974.98
2022-10-15T06:08:54.966Z,100973.09
2022-10-15T06:09:58.834Z,100973.04
2022-10-15T06:11:06.875Z,100967.62
2022-10-15T06:12:11.341Z,100970.33
2022-10-15T06:13:16.797Z,100974.86
2022-10-15T06:14:25.600Z,100968.95
2022-10-15T06:15:26.484Z,100977.00
2022-10-15T06:16:30.410Z,100937.08
2022-10-15T06:17:34.278Z,100974.09
2022-10-15T06:18:38.771Z,100974.48
2022-10-15T06:19:42.749Z,100966.80
2022-10-15T06:20:52.105Z,100967.43
2022-10-15T06:21:56.990Z,100974.12
2022-10-15T06:23:05.007Z,100965.84
2022-10-15T06:25:34.458Z,100959.50
2022-10-15T06:26:04.771Z,100965.84
2022-10-15T06:26:38.459Z,100966.09
2022-10-15T06:27:44.932Z,100966.43
2022-10-15T06:30:02.610Z,100966.81
2022-10-15T06:31:14.540Z,100966.56
2022-10-15T06:32:09.040Z,100969.74
2022-10-15T06:32:15.256Z,100966.30
2022-10-15T06:33:19.171Z,100967.78
2022-10-15T06:34:25.710Z,100971.91
2022-10-15T06:35:29.703Z,100971.91
2022-10-15T06:36:33.753Z,100974.08
2022-10-15T06:37:39.818Z,100977.23
2022-10-15T06:38:45.222Z,100977.72
2022-10-15T06:39:50.599Z,100977.72
2022-10-15T06:40:56.614Z,100975.16
2022-10-15T06:42:01.489Z,100976.48
2022-10-15T06:43:11.796Z,100976.33
2022-10-15T06:44:20.174Z,100974.86
2022-10-15T06:45:24.047Z,100978.12
2022-10-15T06:46:27.994Z,100974.97
2022-10-15T06:47:32.096Z,100965.66
2022-10-15T06:48:36.118Z,100973.34
2022-10-15T06:49:40.019Z,100971.97
2022-10-15T06:50:43.973Z,100983.18
2022-10-15T06:51:47.837Z,100974.02
2022-10-15T06:52:52.877Z,100952.34
2022-10-15T06:54:04.086Z,100980.18
2022-10-15T06:55:04.839Z,100985.28
2022-10-15T06:56:10.363Z,100986.75
2022-10-15T06:57:16.617Z,100986.75
2022-10-15T06:58:20.533Z,100991.09
2022-10-15T06:59:28.304Z,100986.34
2022-10-15T07:01:41.346Z,100986.91
2022-10-15T07:02:43.958Z,100981.86
2022-10-15T07:04:12.660Z,100988.11
2022-10-15T07:12:49.596Z,100994.54
2022-10-15T07:13:55.202Z,100998.80
2022-10-15T07:14:59.085Z,100994.00
2022-10-15T07:16:08.235Z,100992.64
2022-10-15T07:17:12.173Z,100999.70
2022-10-15T07:18:17.673Z,100998.58
2022-10-15T07:19:24.589Z,101001.12
2022-10-15T07:20:33.552Z,101002.84
2022-10-15T07:21:43.856Z,100995.50
2022-10-15T07:23:06.398Z,101002.45
2022-10-15T07:24:02.559Z,101002.45
2022-10-15T07:25:09.317Z,100993.95
2022-10-15T07:26:18.028Z,100999.50
2022-10-15T07:28:53.685Z,101000.23
2022-10-15T07:31:04.572Z,101007.47
2022-10-15T07:32:38.913Z,101000.96
2022-10-15T07:33:43.284Z,101013.84
2022-10-15T07:34:52.061Z,101002.09
2022-10-15T07:35:59.334Z,100995.86
2022-10-15T07:37:03.262Z,100999.16
2022-10-15T07:39:37.786Z,100997.03
2022-10-15T07:40:40.461Z,101000.44
2022-10-15T07:41:45.811Z,100997.59
2022-10-15T07:44:14.169Z,101003.30
2022-10-15T07:46:33.589Z,101003.98
2022-10-15T09:22:51.148Z,101003.81
2022-10-15T09:24:04.622Z,101007.48
2022-10-15T09:25:11.692Z,101001.80
2022-10-15T09:26:19.557Z,100993.59
2022-10-15T09:27:35.157Z,101001.38
2022-10-15T09:29:00.240Z,101001.38
2022-10-15T09:30:28.429Z,101004.49
2022-10-15T09:33:09.980Z,100997.36
2022-10-15T09:34:22.819Z,101006.47
2022-10-15T09:35:41.658Z,101005.33
2022-10-15T09:36:59.208Z,101001.33
2022-10-15T09:38:15.060Z,101007.30
2022-10-15T09:39:34.005Z,101007.30
2022-10-15T09:40:45.410Z,100992.81
2022-10-15T09:41:55.007Z,101001.91
2022-10-15T09:44:17.408Z,101007.56
2022-10-15T09:47:26.594Z,101002.05
2022-10-15T09:48:33.455Z,100997.95
2022-10-15T09:49:39.775Z,100997.66
2022-10-15T09:50:46.689Z,100990.25
2022-10-15T09:52:01.546Z,100993.66
2022-10-15T09:53:23.312Z,100992.68
2022-10-15T09:55:03.753Z,100992.68
2022-10-15T09:56:12.243Z,100998.07
2022-10-15T09:57:18.749Z,100987.85
2022-10-15T09:58:31.514Z,100998.34
2022-10-15T09:59:34.013Z,100998.64
2022-10-15T10:00:59.194Z,100972.02
2022-10-15T10:02:14.715Z,100991.39
2022-10-15T10:03:19.166Z,100997.66
2022-10-15T10:04:24.628Z,100991.26
2022-10-15T10:05:32.910Z,100993.11
2022-10-15T10:06:42.669Z,100993.11
2022-10-15T10:08:12.823Z,100999.34
2022-10-15T10:10:29.019Z,100991.26
2022-10-15T10:38:39.928Z,100989.47
2022-10-15T10:39:43.964Z,100985.80
2022-10-15T10:40:56.278Z,100985.80
2022-10-15T10:42:05.750Z,100982.09
2022-10-15T10:43:18.192Z,100983.81
2022-10-15T10:44:25.066Z,100979.27
2022-10-15T10:45:30.240Z,100979.27
2022-10-15T10:46:34.316Z,100987.91
2022-10-15T10:47:38.163Z,100984.91
2022-10-15T10:51:27.800Z,100980.95
2022-10-15T10:52:37.463Z,100970.72
2022-10-15T10:54:02.628Z,100976.82
2022-10-15T10:55:23.434Z,100971.27
2022-10-15T10:56:42.716Z,100976.52
2022-10-15T10:57:52.695Z,100972.27
2022-10-15T10:59:02.376Z,100979.35
2022-10-15T11:00:07.868Z,100979.52
2022-10-15T11:01:14.019Z,100979.52
2022-10-15T11:02:18.045Z,100982.05
2022-10-15T11:03:37.176Z,100987.44
2022-10-15T11:04:41.385Z,100982.05
2022-10-15T11:05:49.763Z,100976.82
2022-10-15T11:07:03.941Z,100973.95
2022-10-15T11:08:28.610Z,100979.35
2022-10-15T11:09:55.325Z,100971.43
2022-10-15T11:11:09.391Z,100974.26
2022-10-15T11:12:28.221Z,100974.97
2022-10-15T11:13:55.856Z,100964.19
2022-10-15T11:15:28.839Z,100955.26
2022-10-15T11:16:43.871Z,100967.59
2022-10-15T11:18:06.760Z,100972.98
2022-10-15T11:19:50.269Z,100972.98
2022-10-15T11:20:49.734Z,100972.98
2022-10-15T11:21:52.474Z,100964.90
2022-10-15T11:23:03.642Z,100963.89
2022-10-15T11:24:20.733Z,100972.98
2022-10-15T11:25:36.012Z,100972.98
2022-10-15T11:27:09.838Z,100981.20
2022-10-15T11:28:29.485Z,100959.51
2022-10-15T11:29:55.119Z,100971.43
2022-10-15T11:31:13.675Z,100958.80
2022-10-15T11:33:01.679Z,100970.59
2022-10-15T11:33:51.434Z,100970.59
2022-10-15T11:35:51.587Z,100970.29
2022-10-15T11:37:03.217Z,100960.48
2022-10-15T11:38:32.342Z,100960.48
2022-10-15T11:40:06.662Z,100967.31
2022-10-15T11:41:18.673Z,100967.31
2022-10-15T11:42:29.586Z,100964.20
2022-10-15T11:43:54.224Z,100961.38
2022-10-15T11:45:08.437Z,100969.33
2022-10-15T11:46:44.227Z,100967.61
2022-10-15T11:48:09.544Z,100967.61
2022-10-15T11:49:31.187Z,100968.45
2022-10-15T11:50:51.844Z,100962.77
2022-10-15T13:49:07.604Z,100924.56
2022-10-15T13:52:01.005Z,100921.87
2022-10-15T13:53:19.981Z,100922.88
2022-10-15T13:56:17.143Z,100925.86
2022-10-15T13:57:21.048Z,100926.58
2022-10-15T13:58:36.259Z,100921.19
2022-10-15T13:59:41.670Z,100921.19
2022-10-15T14:01:15.589Z,100917.78
2022-10-15T14:02:19.690Z,100917.78
2022-10-15T14:03:28.430Z,100932.22
2022-10-15T14:04:42.520Z,100928.00
2022-10-15T14:05:48.087Z,100934.23
2022-10-15T14:06:58.203Z,100929.14
2022-10-15T14:08:02.294Z,100929.41
2022-10-15T14:09:26.108Z,100925.02
2022-10-15T14:10:30.202Z,100927.72
2022-10-15T14:11:35.376Z,100926.88
2022-10-15T14:12:39.423Z,100926.03
2022-10-15T14:13:55.459Z,100929.86
2022-10-15T14:15:02.329Z,100926.31
2022-10-15T14:16:15.783Z,100920.94
2022-10-15T14:17:27.368Z,100922.07
2022-10-15T14:18:43.082Z,100924.05
2022-10-15T14:20:25.928Z,100918.79
2022-10-15T14:21:14.010Z,100918.79
2022-10-15T14:22:23.790Z,100929.14
2022-10-15T14:23:28.520Z,100927.45
2022-10-15T14:24:39.590Z,100924.89
2022-10-15T14:25:43.792Z,100929.59
2022-10-15T14:26:50.178Z,100934.26
2022-10-15T14:27:55.791Z,100926.31
2022-10-15T14:29:02.986Z,100923.06
2022-10-15T14:30:11.905Z,100923.06
2022-10-15T14:31:28.937Z,100935.81
2022-10-15T14:32:47.199Z,100926.17
2022-10-15T14:33:52.623Z,100927.30
2022-10-15T14:34:59.661Z,100925.75
2022-10-15T14:36:21.408Z,100925.75
2022-10-15T14:37:40.569Z,100920.91
2022-10-15T14:38:44.574Z,100918.50
2022-10-15T14:39:51.266Z,100919.76
2022-10-15T14:41:07.538Z,100927.98
2022-10-15T14:42:28.637Z,100921.89
2022-10-15T14:43:35.507Z,100927.69
2022-10-15T14:44:47.748Z,100920.90
2022-10-15T14:45:54.716Z,100926.56
2022-10-15T14:47:03.560Z,100919.75
2022-10-15T14:48:13.459Z,100926.13
2022-10-15T14:49:26.463Z,100921.16
2022-10-15T14:50:34.179Z,100920.59
2022-10-15T14:51:38.278Z,100923.56
2022-10-15T14:52:54.936Z,100933.61
2022-10-15T14:54:01.225Z,100933.61
2022-10-15T14:55:13.726Z,100932.45
2022-10-15T14:56:23.065Z,100930.88
2022-10-15T14:57:30.039Z,100930.88
2022-10-15T14:58:34.151Z,100939.23
2022-10-15T14:59:44.526Z,100933.56
2022-10-15T15:00:47.920Z,100937.50
2022-10-15T15:02:01.637Z,100934.97
2022-10-15T15:03:05.576Z,100934.36
2022-10-15T15:04:12.483Z,100933.80
2022-10-15T15:05:19.364Z,100934.92
2022-10-15T15:06:23.513Z,100936.20
2022-10-15T15:07:27.468Z,100938.28
2022-10-15T15:08:31.469Z,100934.03
2022-10-15T15:09:35.345Z,100930.65
2022-10-15T15:10:41.454Z,100944.20
2022-10-15T15:11:45.019Z,100943.63
2022-10-15T15:12:56.813Z,100941.07
2022-10-15T15:14:02.258Z,100941.07
2022-10-15T15:15:14.365Z,100938.77
2022-10-15T15:16:20.570Z,100941.01
2022-10-15T15:17:30.043Z,100941.01
2022-10-15T15:18:34.037Z,100944.12
2022-10-15T15:19:43.631Z,100942.55
2022-10-15T15:20:45.881Z,100945.51
2022-10-15T15:21:49.929Z,100948.47
2022-10-15T15:24:08.406Z,100944.59
2022-10-15T15:25:18.190Z,100949.24
2022-10-15T15:26:22.200Z,100948.52
2022-10-15T15:27:31.496Z,100944.14
2022-10-15T15:28:35.494Z,100944.14
2022-10-15T15:29:43.057Z,100950.78
2022-10-15T15:30:49.102Z,100949.20
2022-10-15T15:31:53.041Z,100946.64
2022-10-15T15:32:58.696Z,100945.91
2022-10-15T15:34:02.627Z,100945.18
2022-10-15T15:35:27.279Z,100943.64
2022-10-15T15:36:31.217Z,100943.64
2022-10-15T16:14:16.565Z,100965.27
2022-10-15T16:38:30.973Z,100960.19
2022-10-15T16:41:12.770Z,100966.54
2022-10-15T17:08:26.465Z,100984.56
2022-10-15T17:14:34.485Z,100980.08
2022-10-15T17:29:35.040Z,101012.15
2022-10-15T17:31:19.132Z,101006.80
2022-10-15T17:31:51.102Z,100999.50
2022-10-15T17:35:54.130Z,101008.28
2022-10-15T17:38:22.595Z,101005.47
2022-10-15T17:39:26.366Z,101005.47
2022-10-15T17:40:30.364Z,101003.77
2022-10-15T17:41:35.612Z,101009.87
2022-10-15T17:42:52.050Z,101010.81
2022-10-15T17:43:51.344Z,101019.83
2022-10-15T17:44:56.550Z,101019.83
2022-10-15T17:46:05.200Z,101002.79
2022-10-15T17:47:09.085Z,101009.97
2022-10-15T17:48:13.037Z,101012.78
2022-10-15T17:49:16.888Z,101007.53
2022-10-15T17:50:22.405Z,101009.47
2022-10-15T17:51:31.104Z,101011.30
2022-10-15T17:52:35.035Z,101012.05
2022-10-15T17:53:39.036Z,101008.52
2022-10-15T17:54:42.872Z,101008.52
2022-10-15T17:55:46.719Z,101009.61
2022-10-15T17:56:51.106Z,101011.44
2022-10-15T17:58:01.610Z,101013.98
2022-10-15T17:59:07.213Z,101015.91
2022-10-15T18:02:50.579Z,101015.30
2022-10-15T18:03:56.314Z,101008.36
2022-10-15T18:05:00.376Z,101011.17
2022-10-15T18:06:12.725Z,101014.80
2022-10-15T18:07:17.869Z,101016.73
2022-10-15T18:08:23.406Z,101008.80
2022-10-15T18:09:28.557Z,101014.16
2022-10-15T18:10:32.507Z,101010.84
2022-10-15T18:11:36.427Z,101009.99
2022-10-15T18:12:40.278Z,101005.63
2022-10-15T18:13:44.371Z,101014.63
2022-10-15T18:14:48.354Z,101020.09
2022-10-15T18:15:54.843Z,101015.72
2022-10-15T18:16:58.842Z,101009.48
2022-10-15T18:18:04.287Z,101009.48
2022-10-15T18:19:08.178Z,101019.34
2022-10-15T18:20:12.321Z,101017.52
2022-10-15T18:21:18.588Z,101020.33
2022-10-15T18:22:22.463Z,101019.47
2022-10-15T18:23:26.393Z,101015.20
2022-10-15T18:24:30.248Z,101015.20
2022-10-15T18:25:34.244Z,101024.08
2022-10-15T18:26:38.179Z,101026.25
2022-10-15T18:27:43.670Z,101024.55
2022-10-15T18:28:49.910Z,101027.23
2022-10-15T18:29:53.836Z,101033.53
2022-10-15T18:30:58.314Z,101037.19
2022-10-15T18:32:03.888Z,101036.44
2022-10-15T18:33:10.835Z,101035.69
2022-10-15T18:34:15.373Z,101035.69
2022-10-15T18:35:19.213Z,101035.31
2022-10-15T18:36:25.887Z,101038.96
2022-10-15T18:37:29.761Z,101038.96
2022-10-15T18:38:33.944Z,101033.10
2022-10-15T18:39:39.519Z,101040.47
2022-10-15T18:40:45.002Z,101042.44
2022-10-15T18:41:48.956Z,101044.36
2022-10-15T18:42:54.575Z,101048.96
2022-10-15T18:44:00.845Z,101048.21
2022-10-15T18:45:05.110Z,101046.52
2022-10-15T18:46:09.226Z,101048.44
2022-10-15T18:47:13.191Z,101045.90
2022-10-15T18:48:17.124Z,101049.65
2022-10-15T18:49:21.622Z,101045.25
2022-10-15T18:50:25.605Z,101045.25
2022-10-15T18:51:30.294Z,101048.15
2022-10-15T18:52:39.964Z,101051.05
2022-10-15T18:53:40.400Z,101055.55
2022-10-15T18:54:47.862Z,101061.97
2022-10-15T18:55:51.502Z,101053.11
2022-10-15T18:56:55.467Z,101059.52
2022-10-15T18:57:59.381Z,101059.52
2022-10-15T18:59:03.319Z,101057.92
2022-10-15T19:00:10.537Z,101060.70
2022-10-15T19:01:32.559Z,101061.67
2022-10-15T19:02:36.648Z,101069.92
2022-10-15T19:03:41.026Z,101064.57
2022-10-15T19:04:44.888Z,101061.77
2022-10-15T19:05:50.333Z,101061.77
2022-10-15T19:06:55.119Z,101035.95
2022-10-15T19:07:59.184Z,101062.52
2022-10-15T19:09:05.607Z,101059.75
2022-10-15T19:10:15.321Z,101058.77
2022-10-15T19:11:17.970Z,101065.81
2022-10-15T19:12:23.860Z,101066.66
2022-10-15T19:13:28.022Z,101069.24
2022-10-15T19:14:31.872Z,101063.89
2022-10-15T19:15:38.605Z,101069.24
2022-10-15T19:16:45.593Z,101065.59
2022-10-15T19:17:51.205Z,101065.59
2022-10-15T19:18:55.226Z,101063.89
2022-10-15T19:19:59.255Z,101065.72
2022-10-15T19:21:03.917Z,101075.66
2022-10-15T19:22:09.467Z,101065.81
2022-10-15T19:23:13.577Z,101065.81